createdAt,value
2022-11-07T00:02:05.254Z,75.17
2022-11-07T00:04:35.301Z,77.00
2022-11-07T00:07:03.771Z,78.40
2022-11-07T00:09:31.773Z,77.77
2022-11-07T00:11:59.796Z,75.87
2022-11-07T00:14:27.847Z,76.47
2022-11-07T00:16:55.898Z,73.63
2022-11-07T00:19:23.863Z,78.10
2022-11-07T00:21:53.274Z,76.03
2022-11-07T00:24:21.269Z,75.00
2022-11-07T00:26:49.493Z,74.27
2022-11-07T00:29:19.668Z,78.37
2022-11-07T00:31:48.231Z,75.50
2022-11-07T00:34:16.720Z,75.83
2022-11-07T00:36:45.049Z,75.27
2022-11-07T00:39:14.463Z,77.83
2022-11-07T00:41:42.499Z,77.73
2022-11-07T00:44:10.485Z,77.53
2022-11-07T00:46:38.440Z,77.43
2022-11-07T00:49:06.421Z,78.47
2022-11-07T00:51:34.420Z,75.00
2022-11-07T00:54:03.650Z,74.60
2022-11-07T00:56:33.063Z,77.20
2022-11-07T00:59:01.601Z,76.03
2022-11-07T01:01:32.332Z,76.30
2022-11-07T01:04:18.518Z,76.20
2022-11-07T01:06:48.282Z,74.93
2022-11-07T01:09:19.881Z,74.07
2022-11-07T01:11:49.932Z,73.50
2022-11-07T01:14:20.706Z,68.70
2022-11-07T01:16:48.990Z,68.83
2022-11-07T01:19:17.694Z,67.57
2022-11-07T01:21:46.217Z,66.17
2022-11-07T01:24:14.932Z,66.30
2022-11-07T01:26:44.739Z,65.93
2022-11-07T01:29:14.123Z,67.90
2022-11-07T01:31:42.319Z,63.97
2022-11-07T01:34:10.539Z,64.77
2022-11-07T01:36:38.785Z,63.83
2022-11-07T01:39:07.489Z,62.87
2022-11-07T01:41:39.050Z,66.87
2022-11-07T01:44:40.341Z,69.40
2022-11-07T01:47:12.433Z,69.67
2022-11-07T01:49:43.185Z,69.20
2022-11-07T01:52:16.220Z,67.90
2022-11-07T01:54:49.340Z,72.00
2022-11-07T01:57:21.760Z,71.13
2022-11-07T01:59:52.248Z,70.37
2022-11-07T02:02:22.267Z,92.53
2022-11-07T02:04:50.325Z,66.67
2022-11-07T02:07:21.783Z,66.53
2022-11-07T02:09:51.006Z,70.73
2022-11-07T02:12:20.092Z,65.50
2022-11-07T02:14:48.080Z,63.53
2022-11-07T02:17:17.355Z,66.17
2022-11-07T02:19:49.824Z,60.23
2022-11-07T02:22:26.468Z,97.27
2022-11-07T02:24:59.271Z,81.50
2022-11-07T02:27:30.452Z,61.63
2022-11-07T02:30:02.680Z,61.17
2022-11-07T02:32:30.898Z,87.10
2022-11-07T02:35:00.087Z,61.23
2022-11-07T02:37:32.114Z,64.77
2022-11-07T02:40:04.272Z,68.13
2022-11-07T02:42:44.423Z,75.93
2022-11-07T02:45:15.260Z,70.20
2022-11-07T02:47:43.632Z,78.63
2022-11-07T02:50:14.491Z,72.17
2022-11-07T02:52:42.567Z,77.70
2022-11-07T02:55:13.886Z,67.23
2022-11-07T02:57:42.532Z,78.50
2022-11-07T03:00:13.237Z,76.57
2022-11-07T03:02:46.963Z,82.70
2022-11-07T03:05:16.342Z,78.47
2022-11-07T03:07:45.340Z,72.70
2022-11-07T03:10:15.775Z,102.90
2022-11-07T03:12:44.114Z,101.97
2022-11-07T03:15:13.635Z,126.23
2022-11-07T03:17:41.695Z,70.47
2022-11-07T03:20:11.177Z,68.77
2022-11-07T03:22:39.891Z,108.77
2022-11-07T03:25:08.726Z,70.67
2022-11-07T03:27:38.176Z,77.43
2022-11-07T03:30:07.054Z,75.53
2022-11-07T03:32:34.987Z,86.07
2022-11-07T03:35:03.072Z,71.90
2022-11-07T03:37:31.015Z,110.43
2022-11-07T03:39:59.008Z,65.73
2022-11-07T03:42:26.995Z,70.97
2022-11-07T03:44:56.439Z,64.43
2022-11-07T03:47:24.393Z,90.03
2022-11-07T03:49:52.340Z,86.30
2022-11-07T03:52:20.354Z,68.63
2022-11-07T03:54:48.444Z,85.23
2022-11-07T03:57:16.553Z,74.40
2022-11-07T03:59:44.599Z,86.20
2022-11-07T04:02:14.085Z,63.77
2022-11-07T04:04:42.151Z,63.03
2022-11-07T04:07:10.274Z,62.67
2022-11-07T04:09:38.222Z,66.93
2022-11-07T04:12:24.119Z,81.07
2022-11-07T04:15:10.047Z,64.97
2022-11-07T04:17:39.431Z,63.20
2022-11-07T04:20:08.730Z,62.83
2022-11-07T04:22:36.820Z,68.70
2022-11-07T04:25:05.776Z,63.47
2022-11-07T04:27:44.965Z,63.87
2022-11-07T04:30:23.752Z,62.83
2022-11-07T04:32:54.767Z,60.60
2022-11-07T04:35:24.628Z,60.83
2022-11-07T04:37:53.187Z,60.07
2022-11-07T04:40:21.880Z,59.27
2022-11-07T04:42:50.594Z,59.97
2022-11-07T04:45:19.448Z,60.67
2022-11-07T04:47:47.820Z,59.83
2022-11-07T04:50:20.273Z,59.93
2022-11-07T04:52:49.058Z,58.93
2022-11-07T04:55:22.991Z,59.67
2022-11-07T04:57:51.267Z,60.37
2022-11-07T05:00:20.552Z,60.97
2022-11-07T05:02:49.736Z,60.13
2022-11-07T05:05:19.710Z,60.73
2022-11-07T05:07:48.864Z,61.10
2022-11-07T05:10:20.532Z,60.57
2022-11-07T05:12:48.981Z,58.13
2022-11-07T05:15:17.495Z,57.17
2022-11-07T05:17:45.769Z,56.27
2022-11-07T05:20:29.368Z,56.17
2022-11-07T05:23:17.934Z,55.67
2022-11-07T05:25:48.479Z,56.53
2022-11-07T05:28:25.749Z,55.57
2022-11-07T05:30:59.071Z,56.33
2022-11-07T05:33:27.347Z,56.83
2022-11-07T05:35:56.705Z,55.80
2022-11-07T05:38:24.730Z,55.87
2022-11-07T05:40:52.673Z,56.03
2022-11-07T05:43:20.659Z,55.57
2022-11-07T05:45:48.623Z,56.07
2022-11-07T05:48:16.624Z,55.63
2022-11-07T05:50:44.564Z,56.57
2022-11-07T05:53:14.571Z,55.53
2022-11-07T05:55:43.087Z,55.10
2022-11-07T05:58:12.554Z,56.17
2022-11-07T06:00:41.566Z,54.83
2022-11-07T06:03:09.930Z,56.07
2022-11-07T06:05:39.192Z,54.20
2022-11-07T06:08:07.851Z,53.63
2022-11-07T06:10:37.313Z,53.43
2022-11-07T06:13:07.282Z,53.40
2022-11-07T06:15:37.416Z,54.60
2022-11-07T06:18:07.467Z,54.43
2022-11-07T06:20:35.900Z,55.30
2022-11-07T06:23:05.794Z,53.83
2022-11-07T06:25:34.048Z,54.30
2022-11-07T06:28:05.582Z,56.77
2022-11-07T06:30:34.599Z,59.47
2022-11-07T06:33:03.825Z,57.23
2022-11-07T06:35:32.102Z,58.10
2022-11-07T06:38:02.877Z,55.63
2022-11-07T06:40:30.893Z,57.80
2022-11-07T06:43:07.686Z,57.50
2022-11-07T06:45:36.219Z,57.23
2022-11-07T06:48:04.517Z,56.67
2022-11-07T06:50:32.539Z,54.73
2022-11-07T06:53:03.151Z,55.63
2022-11-07T06:55:31.216Z,54.23
2022-11-07T06:58:00.755Z,53.17
2022-11-07T07:00:30.940Z,53.23
2022-11-07T07:02:59.545Z,51.67
2022-11-07T07:05:27.731Z,51.87
2022-11-07T07:07:56.245Z,52.63
2022-11-07T07:10:25.324Z,51.33
2022-11-07T07:12:53.668Z,49.37
2022-11-07T07:15:21.753Z,49.93
2022-11-07T07:17:51.222Z,48.37
2022-11-07T07:20:19.447Z,48.97
2022-11-07T07:22:53.284Z,47.87
2022-11-07T07:25:25.013Z,47.70
2022-11-07T07:27:53.142Z,46.93
2022-11-07T07:30:21.171Z,47.10
2022-11-07T07:32:50.512Z,48.03
2022-11-07T07:35:18.671Z,46.23
2022-11-07T07:37:50.738Z,45.80
2022-11-07T07:40:19.145Z,46.33
2022-11-07T07:42:47.599Z,46.43
2022-11-07T07:45:17.431Z,45.93
2022-11-07T07:47:45.574Z,46.20
2022-11-07T07:50:15.399Z,46.20
2022-11-07T07:52:43.860Z,45.97
2022-11-07T07:55:12.058Z,46.23
2022-11-07T07:57:41.306Z,45.53
2022-11-07T08:00:11.492Z,45.13
2022-11-07T08:02:43.944Z,45.97
2022-11-07T08:05:13.161Z,46.00
2022-11-07T08:07:50.072Z,44.80
2022-11-07T08:13:07.610Z,45.43
2022-11-07T08:15:35.681Z,42.90
2022-11-07T08:18:04.130Z,41.77
2022-11-07T08:20:32.673Z,39.37
2022-11-07T08:23:14.612Z,40.40
2022-11-07T08:25:44.558Z,39.53
2022-11-07T08:28:12.542Z,40.27
2022-11-07T08:30:40.596Z,37.27
2022-11-07T08:33:09.333Z,36.43
2022-11-07T08:35:42.199Z,35.60
2022-11-07T08:38:12.031Z,35.73
2022-11-07T08:40:40.058Z,34.63
2022-11-07T08:43:08.075Z,34.30
2022-11-07T08:45:36.099Z,31.50
2022-11-07T08:48:04.235Z,31.53
2022-11-07T08:50:32.391Z,27.93
2022-11-07T08:53:03.066Z,26.80
2022-11-07T08:55:32.810Z,27.13
2022-11-07T08:58:01.396Z,26.13
2022-11-07T09:00:29.585Z,25.30
2022-11-07T09:05:50.276Z,25.33
2022-11-07T09:08:18.543Z,24.27
2022-11-07T09:10:47.902Z,24.47
2022-11-07T09:13:16.135Z,23.20
2022-11-07T09:15:50.351Z,24.50
2022-11-07T09:18:19.362Z,21.70
2022-11-07T09:20:47.424Z,21.17
2022-11-07T09:23:15.660Z,21.70
2022-11-07T09:25:44.171Z,22.63
2022-11-07T09:28:13.734Z,21.77
2022-11-07T09:30:41.743Z,21.37
2022-11-07T09:33:09.780Z,21.23
2022-11-07T09:35:37.802Z,19.80
2022-11-07T09:38:06.058Z,21.33
2022-11-07T09:40:44.336Z,20.03
2022-11-07T09:43:39.974Z,19.33
2022-11-07T09:46:19.630Z,20.27
2022-11-07T09:48:52.072Z,20.17
2022-11-07T09:51:27.948Z,20.97
2022-11-07T09:54:01.498Z,19.87
2022-11-07T09:56:32.800Z,20.00
2022-11-07T09:59:11.267Z,19.87
2022-11-07T10:01:42.761Z,18.10
2022-11-07T10:04:25.705Z,18.30
2022-11-07T10:07:01.172Z,19.23
2022-11-07T10:09:38.136Z,18.17
2022-11-07T10:12:19.189Z,17.87
2022-11-07T10:14:59.006Z,16.97
2022-11-07T10:17:34.001Z,15.13
2022-11-07T10:20:14.796Z,12.23
2022-11-07T10:23:02.732Z,11.93
2022-11-07T10:25:36.610Z,11.63
2022-11-07T10:28:16.132Z,11.67
2022-11-07T10:30:49.256Z,12.00
2022-11-07T10:33:38.273Z,8.90
2022-11-07T10:36:14.460Z,9.53
2022-11-07T10:38:43.549Z,9.20
2022-11-07T10:41:17.404Z,8.53
2022-11-07T10:43:49.804Z,7.03
2022-11-07T10:46:21.911Z,8.00
2022-11-07T10:48:55.158Z,6.77
2022-11-07T10:51:34.483Z,6.50
2022-11-07T10:54:02.554Z,6.90
2022-11-07T10:56:30.559Z,6.40
2022-11-07T10:58:59.462Z,5.90
2022-11-07T11:01:29.133Z,5.13
2022-11-07T11:03:57.198Z,5.13
2022-11-07T11:06:31.465Z,5.23
2022-11-07T11:09:00.665Z,5.10
2022-11-07T11:11:32.043Z,5.60
2022-11-07T11:14:08.262Z,5.00
2022-11-07T11:16:40.096Z,4.93
2022-11-07T11:19:19.489Z,4.90
2022-11-07T11:21:49.056Z,5.20
2022-11-07T11:24:26.441Z,5.03
2022-11-07T11:26:56.310Z,4.93
2022-11-07T11:29:39.130Z,5.30
2022-11-07T11:32:17.702Z,5.27
2022-11-07T11:34:54.859Z,4.70
2022-11-07T11:37:24.552Z,4.40
2022-11-07T11:40:07.839Z,5.33
2022-11-07T11:42:47.164Z,5.03
2022-11-07T11:45:18.643Z,4.80
2022-11-07T11:47:56.523Z,4.47
2022-11-07T11:50:31.380Z,4.23
2022-11-07T11:53:01.239Z,4.37
2022-11-07T11:55:40.035Z,3.80
2022-11-07T11:58:20.375Z,4.17
2022-11-07T12:00:55.027Z,3.77
2022-11-07T12:03:40.699Z,3.55
2022-11-07T12:06:16.034Z,3.95
2022-11-07T12:09:15.343Z,3.85
2022-11-07T12:11:58.871Z,4.65
2022-11-07T12:14:54.414Z,4.00
2022-11-07T12:17:33.048Z,4.15
2022-11-07T12:20:14.082Z,4.57
2022-11-07T12:22:51.820Z,4.10
2022-11-07T12:25:28.049Z,4.38
2022-11-07T12:28:05.290Z,4.50
2022-11-07T12:30:43.202Z,4.60
2022-11-07T12:33:24.350Z,4.40
2022-11-07T12:35:58.178Z,4.45
2022-11-07T12:38:59.959Z,5.00
2022-11-07T12:41:38.577Z,4.63
2022-11-07T12:44:19.805Z,5.50
2022-11-07T12:46:52.786Z,5.03
2022-11-07T12:49:48.933Z,5.55
2022-11-07T12:52:32.256Z,5.80
2022-11-07T12:55:03.958Z,5.72
2022-11-07T12:57:34.390Z,4.10
2022-11-07T13:00:06.600Z,4.10
2022-11-07T13:02:51.797Z,5.70
2022-11-07T13:05:36.941Z,4.18
2022-11-07T13:08:12.330Z,4.38
2022-11-07T13:10:48.605Z,4.60
2022-11-07T13:13:23.494Z,4.57
2022-11-07T13:16:14.629Z,4.47
2022-11-07T13:21:12.365Z,3.80
2022-11-07T13:23:42.202Z,4.35
2022-11-07T13:26:32.965Z,4.18
2022-11-07T13:29:00.140Z,4.35
2022-11-07T13:31:34.589Z,3.83
2022-11-07T13:34:24.375Z,5.00
2022-11-07T13:36:59.429Z,4.28
2022-11-07T13:39:30.404Z,5.07
2022-11-07T13:42:00.639Z,4.50
2022-11-07T13:44:32.952Z,4.97
2022-11-07T13:47:05.639Z,5.20
2022-11-07T13:49:44.226Z,4.60
2022-11-07T13:52:18.639Z,5.07
2022-11-07T13:54:54.419Z,4.90
2022-11-07T13:57:28.882Z,5.28
2022-11-07T14:00:01.378Z,5.65
2022-11-07T14:02:31.190Z,5.25
2022-11-07T14:05:20.012Z,5.22
2022-11-07T14:07:49.670Z,4.82
2022-11-07T14:10:25.174Z,4.75
2022-11-07T14:12:57.608Z,4.55
2022-11-07T14:15:25.884Z,4.60
2022-11-07T14:17:53.948Z,3.80
2022-11-07T14:20:22.320Z,4.60
2022-11-07T14:22:52.448Z,4.47
2022-11-07T14:25:26.819Z,5.13
2022-11-07T14:27:55.153Z,4.20
2022-11-07T14:30:25.670Z,3.80
2022-11-07T14:32:55.896Z,4.17
2022-11-07T14:35:27.478Z,4.27
2022-11-07T14:37:56.820Z,5.13
2022-11-07T14:40:27.024Z,4.63
2022-11-07T14:42:55.303Z,4.37
2022-11-07T14:45:55.079Z,4.73
2022-11-07T14:48:14.785Z,5.20
2022-11-07T14:50:43.471Z,5.03
2022-11-07T14:53:20.104Z,8.10
2022-11-07T14:55:53.896Z,6.73
2022-11-07T14:58:24.953Z,5.67
2022-11-07T15:00:55.987Z,5.40
2022-11-07T15:03:32.100Z,5.57
2022-11-07T15:06:00.375Z,5.47
2022-11-07T15:08:30.208Z,5.43
2022-11-07T15:11:06.425Z,5.30
2022-11-07T15:13:36.162Z,5.30
2022-11-07T15:16:07.052Z,5.47
2022-11-07T15:18:40.322Z,5.87
2022-11-07T15:21:11.732Z,5.47
2022-11-07T15:23:39.748Z,6.00
2022-11-07T15:26:13.889Z,5.87
2022-11-07T15:28:47.297Z,6.17
2022-11-07T15:31:23.955Z,6.30
2022-11-07T15:33:53.108Z,6.37
2022-11-07T15:36:21.626Z,6.77
2022-11-07T15:38:50.905Z,6.80
2022-11-07T15:41:20.425Z,6.30
2022-11-07T15:43:48.400Z,5.70
2022-11-07T15:46:26.634Z,6.40
2022-11-07T15:48:54.829Z,6.63
2022-11-07T15:51:22.830Z,6.80
2022-11-07T15:53:50.955Z,6.43
2022-11-07T15:56:23.081Z,6.50
2022-11-07T15:58:51.428Z,6.90
2022-11-07T16:01:19.848Z,7.10
2022-11-07T16:03:47.862Z,7.10
2022-11-07T16:06:20.804Z,7.17
2022-11-07T16:08:48.838Z,7.40
2022-11-07T16:11:16.935Z,6.77
2022-11-07T16:13:47.117Z,7.40
2022-11-07T16:16:20.409Z,7.43
2022-11-07T16:18:50.703Z,7.40
2022-11-07T16:21:18.810Z,8.07
2022-11-07T16:23:49.597Z,7.10
2022-11-07T16:26:21.526Z,7.90
2022-11-07T16:28:51.034Z,7.80
2022-11-07T16:31:19.427Z,7.77
2022-11-07T16:33:47.439Z,8.10
2022-11-07T16:36:21.900Z,7.97
2022-11-07T16:38:50.143Z,9.03
2022-11-07T16:41:18.163Z,8.53
2022-11-07T16:43:47.061Z,8.47
2022-11-07T16:46:18.489Z,8.53
2022-11-07T16:48:48.415Z,9.03
2022-11-07T16:51:18.031Z,9.10
2022-11-07T16:53:46.773Z,9.10
2022-11-07T16:56:23.542Z,9.30
2022-11-07T16:58:52.955Z,9.07
2022-11-07T17:01:23.403Z,9.10
2022-11-07T17:03:51.688Z,9.23
2022-11-07T17:06:21.874Z,10.07
2022-11-07T17:08:49.889Z,9.73
2022-11-07T17:11:19.216Z,10.60
2022-11-07T17:13:47.271Z,10.67
2022-11-07T17:16:17.885Z,10.93
2022-11-07T17:18:47.483Z,11.07
2022-11-07T17:21:23.699Z,11.57
2022-11-07T17:23:52.532Z,11.80
2022-11-07T17:26:22.970Z,12.10
2022-11-07T17:28:51.942Z,11.77
2022-11-07T17:31:20.319Z,12.80
2022-11-07T17:33:49.961Z,13.10
2022-11-07T17:36:29.764Z,12.80
2022-11-07T17:39:03.676Z,12.93
2022-11-07T17:41:31.871Z,12.83
2022-11-07T17:44:00.966Z,12.83
2022-11-07T17:46:31.753Z,12.93
2022-11-07T17:49:03.373Z,13.60
2022-11-07T17:51:31.484Z,13.70
2022-11-07T17:54:00.105Z,13.60
2022-11-07T17:56:29.783Z,14.17
2022-11-07T17:59:00.098Z,13.60
2022-11-07T18:01:31.043Z,15.47
2022-11-07T18:04:01.920Z,15.27
2022-11-07T18:06:30.796Z,15.70
2022-11-07T18:09:00.190Z,16.27
2022-11-07T18:11:30.554Z,15.57
2022-11-07T18:13:59.915Z,15.03
2022-11-07T18:16:31.227Z,15.83
2022-11-07T18:19:02.148Z,15.10
2022-11-07T18:21:30.573Z,15.83
2022-11-07T18:23:58.889Z,15.70
2022-11-07T18:26:30.851Z,15.60
2022-11-07T18:29:08.908Z,15.30
2022-11-07T18:31:40.577Z,16.17
2022-11-07T18:34:12.980Z,15.83
2022-11-07T18:36:42.989Z,15.90
2022-11-07T18:39:15.046Z,16.03
2022-11-07T18:41:43.576Z,16.20
2022-11-07T18:44:12.479Z,16.73
2022-11-07T18:46:41.073Z,16.57
2022-11-07T18:49:12.322Z,17.27
2022-11-07T18:51:40.762Z,17.50
2022-11-07T18:54:08.769Z,16.73
2022-11-07T18:56:36.823Z,18.00
2022-11-07T18:59:04.873Z,17.63
2022-11-07T19:01:34.138Z,17.67
2022-11-07T19:04:05.762Z,17.97
2022-11-07T19:06:35.344Z,19.17
2022-11-07T19:09:03.611Z,17.97
2022-11-07T19:11:34.059Z,17.50
2022-11-07T19:14:03.816Z,19.70
2022-11-07T19:16:32.403Z,20.90
2022-11-07T19:19:01.085Z,21.60
2022-11-07T19:21:29.118Z,20.83
2022-11-07T19:23:58.536Z,22.20
2022-11-07T19:26:26.536Z,21.90
2022-11-07T19:28:55.284Z,23.97
2022-11-07T19:31:23.346Z,24.53
2022-11-07T19:33:51.394Z,23.60
2022-11-07T19:36:21.441Z,24.43
2022-11-07T19:38:50.497Z,24.97
2022-11-07T19:41:20.407Z,25.57
2022-11-07T19:43:50.121Z,25.17
2022-11-07T19:46:20.770Z,26.57
2022-11-07T19:48:49.772Z,26.43
2022-11-07T19:51:22.576Z,27.30
2022-11-07T19:53:55.055Z,26.33
2022-11-07T19:56:26.381Z,27.27
2022-11-07T19:58:55.444Z,28.27
2022-11-07T20:01:25.804Z,27.70
2022-11-07T20:03:55.803Z,27.63
2022-11-07T20:06:25.645Z,27.10
2022-11-07T20:08:54.325Z,26.47
2022-11-07T20:11:26.697Z,27.20
2022-11-07T20:14:02.697Z,27.67
2022-11-07T20:16:32.214Z,28.47
2022-11-07T20:19:01.362Z,28.47
2022-11-07T20:21:30.402Z,28.50
2022-11-07T20:23:59.933Z,27.50
2022-11-07T20:26:31.579Z,28.93
2022-11-07T20:29:00.365Z,27.77
2022-11-07T20:31:30.635Z,26.77
2022-11-07T20:33:59.834Z,27.30
2022-11-07T20:36:28.418Z,27.03
2022-11-07T20:38:57.041Z,25.80
2022-11-07T20:41:27.202Z,26.40
2022-11-07T20:43:56.862Z,25.93
2022-11-07T20:46:25.182Z,27.83
2022-11-07T20:48:54.185Z,31.57
2022-11-07T20:51:25.239Z,29.33
2022-11-07T20:53:53.949Z,28.73
2022-11-07T20:56:23.621Z,29.23
2022-11-07T20:58:51.959Z,28.57
2022-11-07T21:01:23.620Z,28.97
2022-11-07T21:03:52.126Z,28.57
2022-11-07T21:06:20.835Z,28.50
2022-11-07T21:08:50.388Z,28.10
2022-11-07T21:11:19.012Z,26.80
2022-11-07T21:13:52.656Z,27.07
2022-11-07T21:16:23.481Z,24.77
2022-11-07T21:18:52.279Z,25.40
2022-11-07T21:21:22.250Z,24.43
2022-11-07T21:23:52.499Z,25.73
2022-11-07T21:26:26.559Z,26.73
2022-11-07T21:28:55.880Z,25.03
2022-11-07T21:31:28.585Z,26.00
2022-11-07T21:33:57.742Z,26.03
2022-11-07T21:36:27.889Z,24.27
2022-11-07T21:38:56.610Z,23.90
2022-11-07T21:41:25.145Z,24.30
2022-11-07T21:43:53.190Z,23.70
2022-11-07T21:46:23.642Z,23.97
2022-11-07T21:48:53.554Z,23.10
2022-11-07T21:51:23.286Z,23.23
2022-11-07T21:53:51.683Z,22.03
2022-11-07T21:56:23.182Z,21.97
2022-11-07T21:58:51.970Z,23.70
2022-11-07T22:01:21.053Z,24.03
2022-11-07T22:04:08.015Z,26.73
2022-11-07T22:06:39.736Z,25.93
2022-11-07T22:09:09.584Z,27.53
2022-11-07T22:11:37.558Z,28.07
2022-11-07T22:14:06.432Z,27.27
2022-11-07T22:16:34.699Z,29.77
2022-11-07T22:19:02.714Z,31.30
2022-11-07T22:21:31.400Z,31.03
2022-11-07T22:24:00.725Z,28.53
2022-11-07T22:26:29.951Z,25.90
2022-11-07T22:28:58.077Z,26.00
2022-11-07T22:31:28.572Z,24.87
2022-11-07T22:33:57.400Z,24.83
2022-11-07T22:36:26.002Z,24.97
2022-11-07T22:38:53.957Z,25.17
2022-11-07T22:41:25.707Z,25.83
2022-11-07T22:43:54.159Z,26.10
2022-11-07T22:46:24.065Z,25.93
2022-11-07T22:48:52.948Z,28.33
2022-11-07T22:51:23.487Z,27.43
2022-11-07T22:53:57.134Z,28.60
2022-11-07T22:56:27.753Z,29.73
2022-11-07T22:58:56.279Z,27.77
2022-11-07T23:01:26.427Z,29.87
2022-11-07T23:03:55.536Z,29.43
2022-11-07T23:06:24.936Z,27.57
2022-11-07T23:08:53.425Z,30.17
2022-11-07T23:14:15.624Z,28.37
2022-11-07T23:16:46.171Z,29.57
2022-11-07T23:19:16.272Z,29.07
2022-11-07T23:21:44.704Z,28.50
2022-11-07T23:24:12.716Z,27.47
2022-11-07T23:26:41.030Z,29.53
2022-11-07T23:29:13.462Z,28.67
2022-11-07T23:31:43.093Z,27.10
2022-11-07T23:34:11.605Z,27.27
2022-11-07T23:36:43.955Z,26.10
2022-11-07T23:39:15.711Z,25.23
2022-11-07T23:41:44.118Z,25.77
2022-11-07T23:44:14.396Z,26.90
2022-11-07T23:47:00.559Z,26.37
2022-11-07T23:49:45.325Z,25.83
2022-11-07T23:52:13.578Z,25.70
2022-11-07T23:54:59.480Z,25.87
2022-11-07T23:57:27.611Z,25.07
